CDT,Max TemperatureF,Mean TemperatureF,Min TemperatureF,Max Dew PointF,MeanDew PointF,Min DewpointF,Max Humidity, Mean Humidity, Min Humidity, Max Sea Level PressureIn, Mean Sea Level PressureIn, Min Sea Level PressureIn, Max VisibilityMiles, Mean VisibilityMiles, Min VisibilityMiles, Max Wind SpeedMPH, Mean Wind SpeedMPH, Max Gust SpeedMPH,PrecipitationIn, CloudCover, Events, WindDirDegrees
2012-10-1,72,59,45,54,46,38,89,62,35,30.14,30.04,29.93,10,10,10,32,15,39,0.01,1,,9
2012-10-2,75,57,38,42,37,34,92,59,25,30.09,29.98,29.86,10,10,10,16,9,21,0.00,0,,209
2012-10-3,85,66,47,52,47,39,86,58,29,29.93,29.81,29.72,10,10,10,36,13,45,0.00,0,,169
2012-10-4,59,51,43,52,31,26,62,46,30,30.31,30.21,30.00,10,10,10,36,17,45,0.00,2,,25
2012-10-5,50,44,37,33,31,27,82,62,42,30.36,30.29,30.22,10,10,10,21,13,26,T,5,Rain,60
2012-10-6,39,38,36,36,35,33,100,93,85,30.41,30.34,30.29,10,8,2,16,8,18,0.06,8,Rain,72
2012-10-7,50,43,36,36,33,32,92,72,52,30.38,30.26,30.13,10,10,10,21,8,25,0.00,6,,188
2012-10-8,71,50,29,39,32,25,92,56,19,30.13,29.98,29.84,10,10,10,23,10,30,0.00,0,,199
2012-10-9,61,48,34,40,36,32,92,68,44,30.22,29.95,29.75,10,10,10,35,14,40,0.00,0,,25
2012-10-10,65,48,30,38,30,25,85,56,26,30.30,30.18,30.02,10,10,10,23,10,31,0.00,0,,198
2012-10-11,77,61,44,45,42,34,93,62,31,30.16,30.00,29.94,10,10,5,26,13,33,0.00,0,,100
2012-10-12,56,49,41,49,37,29,83,68,53,30.25,30.12,29.93,10,10,7,25,11,32,0.32,6,,115
2012-10-13,73,63,52,58,51,34,100,63,25,30.00,29.83,29.63,10,7,0,38,13,47,0.56,4,Fog-Rain-Thunderstorm,211
2012-10-14,73,62,50,44,41,37,71,49,27,30.17,30.05,29.82,10,10,10,25,12,31,0.00,0,,321
2012-10-15,78,63,47,48,44,40,77,54,30,30.08,29.92,29.76,10,10,10,14,7,17,0.00,0,,218
2012-10-16,79,61,42,43,40,36,89,55,21,29.77,29.63,29.42,10,10,10,18,7,22,0.00,0,,191
2012-10-17,64,50,36,44,29,17,66,42,17,29.92,29.69,29.37,10,10,10,39,19,48,0.00,0,,339
2012-10-18,64,49,33,26,17,9,70,41,12,30.06,30.00,29.94,10,10,10,41,20,53,0.00,0,,315
2012-10-19,72,54,36,30,21,12,53,35,16,30.04,29.93,29.78,10,10,9,21,11,25,0.00,0,Snow,298
2012-10-20,84,61,38,41,32,23,82,46,10,29.78,29.71,29.62,10,10,10,15,7,20,0.00,0,,201
2012-10-21,83,61,39,52,41,31,89,52,15,29.71,29.65,29.59,10,10,9,14,6,17,0.00,0,,152
2012-10-22,64,54,43,52,47,39,100,84,67,29.90,29.80,29.70,10,9,5,18,9,22,0.00,4,,24
2012-10-23,90,63,36,48,38,25,96,53,9,29.77,29.68,29.61,10,9,6,22,9,28,0.00,0,,210
2012-10-24,61,52,42,48,43,31,93,65,36,29.83,29.73,29.64,10,8,0,31,12,38,T,4,Fog-Rain,2
2012-10-25,49,40,31,46,31,22,93,66,38,30.37,30.08,29.72,10,10,6,38,19,45,T,6,Rain,8
2012-10-26,43,33,22,26,24,21,92,69,45,30.58,30.47,30.34,10,9,5,18,10,22,T,4,Snow,37
2012-10-27,53,36,19,25,22,17,91,61,30,30.45,30.29,30.16,10,10,10,22,9,30,0.00,1,,181
2012-10-28,65,46,26,29,23,19,81,50,19,30.27,30.17,30.06,10,10,10,21,9,29,0.00,2,,196
2012-10-29,71,52,32,33,28,24,72,47,22,30.15,30.09,30.02,10,10,10,15,9,17,0.00,0,,209
2012-10-30,78,58,38,36,34,30,70,46,21,30.02,29.99,29.93,10,10,10,24,12,29,0.00,0,,326
2012-10-31,80,59,38,36,33,29,76,46,16,30.07,30.01,29.94,10,10,7,17,8,33,0.00,0,,289